Time;durP1;ratioP1;P1;durP2;ratioP2;P2;SDS_P1;SDS_P2;PMS_P1;PMS_P2;Temp;Humidity;BMP_temperature;BMP_pressure;BME280_temperature;BME280_humidity;BME280_pressure;Samples;Min_cycle;Max_cycle;Signal;HPM_P1;HPM_P2
2023/08/29 00:00:38;;;;;;;3.73;3.43;;;12.70;1.00;;;;;;5029919;28;20384;-87
2023/08/29 00:03:04;;;;;;;3.88;3.50;;;;;;;;;;5030025;28;20434;-87
2023/08/29 00:05:30;;;;;;;3.80;3.45;;;12.80;1.00;;;;;;5031316;28;20833;-88
2023/08/29 00:07:56;;;;;;;5.00;3.40;;;;;;;;;;5029757;28;20399;-89
2023/08/29 00:10:22;;;;;;;3.80;3.40;;;12.80;1.00;;;;;;5031423;28;20379;-89
2023/08/29 00:12:47;;;;;;;3.67;3.00;;;12.90;1.00;;;;;;5034100;28;20390;-87
2023/08/29 00:15:13;;;;;;;4.10;3.30;;;12.90;1.00;;;;;;5034004;28;20429;-88
2023/08/29 00:17:38;;;;;;;3.25;3.05;;;12.10;1.00;;;;;;5034902;28;20404;-88
2023/08/29 00:20:04;;;;;;;4.18;3.00;;;12.80;1.00;;;;;;5033139;28;20399;-87
2023/08/29 00:22:30;;;;;;;5.35;3.40;;;13.00;1.00;;;;;;5033791;28;20842;-88
2023/08/29 00:24:57;;;;;;;4.45;3.85;;;12.90;1.00;;;;;;5033933;28;20403;-88
2023/08/29 00:27:23;;;;;;;4.10;3.55;;;12.80;1.00;;;;;;5033526;28;20449;-87
2023/08/29 00:29:49;;;;;;;3.75;3.38;;;12.40;1.00;;;;;;5033724;28;20387;-87
2023/08/29 00:32:15;;;;;;;2.80;2.60;;;12.60;1.00;;;;;;5035461;28;20870;-88
2023/08/29 00:34:41;;;;;;;3.37;2.90;;;12.40;1.00;;;;;;5034341;28;20413;-87
2023/08/29 00:37:07;;;;;;;3.60;3.20;;;12.50;1.00;;;;;;5033277;28;20391;-86
2023/08/29 00:39:32;;;;;;;3.15;2.95;;;12.80;1.00;;;;;;5035100;28;20422;-88
2023/08/29 00:41:58;;;;;;;3.03;2.83;;;12.40;1.00;;;;;;5034796;28;20407;-84
2023/08/29 00:44:23;;;;;;;3.17;2.97;;;12.90;1.00;;;;;;5032696;28;20403;-84
2023/08/29 00:46:49;;;;;;;4.10;2.90;;;12.50;1.00;;;;;;5034503;28;20418;-84
2023/08/29 00:49:18;;;;;;;3.27;3.07;;;12.80;1.00;;;;;;5029426;28;20426;-84
2023/08/29 00:51:45;;;;;;;3.22;3.03;;;12.60;1.00;;;;;;5038304;28;20410;-84
2023/08/29 00:54:13;;;;;;;3.38;3.08;;;12.80;1.00;;;;;;5058515;28;20425;-85
2023/08/29 00:56:39;;;;;;;3.60;3.30;;;12.60;1.00;;;;;;5049368;28;20403;-85
2023/08/29 00:59:05;;;;;;;3.78;3.47;;;12.70;1.00;;;;;;5048740;28;20478;-84
2023/08/29 01:01:32;;;;;;;3.90;3.50;;;12.80;1.00;;;;;;5040263;28;20399;-84
2023/08/29 01:03:58;;;;;;;3.33;3.03;;;12.70;1.00;;;;;;5025726;28;20392;-84
2023/08/29 01:06:24;;;;;;;4.00;3.70;;;12.90;1.00;;;;;;5046988;28;20469;-85
2023/08/29 01:08:50;;;;;;;3.50;3.20;;;12.90;1.00;;;;;;5038766;28;20391;-87
2023/08/29 01:11:25;;;;;;;3.90;3.50;;;11.60;1.00;;;;;;5031735;28;20417;-87
2023/08/29 01:14:20;;;;;;;4.60;3.70;;;12.80;1.00;;;;;;5037130;28;20490;-87
2023/08/29 01:16:56;;;;;;;4.72;3.58;;;11.40;1.00;;;;;;4979450;28;20407;-87
2023/08/29 01:19:23;;;;;;;3.00;2.80;;;11.40;1.00;;;;;;5023671;28;20892;-88
2023/08/29 01:22:20;;;;;;;4.50;3.73;;;12.80;1.00;;;;;;5032235;28;20921;-88
2023/08/29 01:24:53;;;;;;;4.13;3.60;;;12.90;1.00;;;;;;5032713;28;20382;-88
2023/08/29 01:27:20;;;;;;;4.40;3.50;;;;;;;;;;5033513;28;20387;-87
2023/08/29 01:29:46;;;;;;;4.50;4.10;;;12.80;1.00;;;;;;5032049;28;20482;-88
2023/08/29 01:32:12;;;;;;;4.82;3.83;;;;;;;;;;5032080;28;20406;-88
2023/08/29 01:34:38;;;;;;;4.13;3.70;;;12.80;1.00;;;;;;5032715;28;20391;-88
2023/08/29 01:37:04;;;;;;;3.72;3.50;;;12.90;1.00;;;;;;5033750;28;20532;-87
2023/08/29 01:39:29;;;;;;;3.80;3.50;;;12.50;1.00;;;;;;5032140;28;20414;-87
2023/08/29 01:41:55;;;;;;;3.70;3.50;;;12.90;1.00;;;;;;5034174;28;20387;-89
2023/08/29 01:44:20;;;;;;;4.07;3.78;;;12.80;1.00;;;;;;5032374;28;20883;-87
2023/08/29 01:46:46;;;;;;;3.70;3.40;;;12.90;1.00;;;;;;5031962;28;20415;-87
2023/08/29 01:49:12;;;;;;;3.90;3.50;;;;;;;;;;5031892;28;20391;-89
2023/08/29 01:51:38;;;;;;;3.50;3.30;;;13.10;1.00;;;;;;5033931;28;20426;-88
2023/08/29 01:54:04;;;;;;;3.70;3.40;;;;;;;;;;5031715;28;20886;-88
2023/08/29 01:56:31;;;;;;;3.70;3.40;;;13.10;1.00;;;;;;5031831;28;20746;-88
2023/08/29 01:58:58;;;;;;;3.80;3.50;;;12.00;1.00;;;;;;5043787;28;20415;-87
2023/08/29 02:01:24;;;;;;;3.20;3.00;;;13.00;1.00;;;;;;5049967;28;20590;-87
2023/08/29 02:03:50;;;;;;;3.80;3.50;;;13.10;1.00;;;;;;5033465;28;20434;-87
2023/08/29 02:06:16;;;;;;;4.28;3.70;;;13.00;1.00;;;;;;5067083;22;20433;-84
2023/08/29 02:08:41;;;;;;;4.07;3.73;;;12.30;1.00;;;;;;5052795;28;20465;-84
2023/08/29 02:11:07;;;;;;;4.00;3.70;;;12.40;1.00;;;;;;5053481;28;20384;-84
2023/08/29 02:13:33;;;;;;;5.00;4.60;;;12.90;1.00;;;;;;5052651;28;20890;-84
2023/08/29 02:16:01;;;;;;;4.50;4.03;;;12.90;1.00;;;;;;5052585;28;20385;-84
2023/08/29 02:18:26;;;;;;;4.10;3.80;;;12.10;1.00;;;;;;5052315;28;20752;-84
2023/08/29 02:20:52;;;;;;;4.23;3.93;;;13.00;1.00;;;;;;5051588;28;20465;-84
2023/08/29 02:23:17;;;;;;;4.40;4.00;;;12.90;1.00;;;;;;5052031;28;20416;-84
2023/08/29 02:25:43;;;;;;;4.03;3.72;;;12.90;1.00;;;;;;5051039;28;20427;-84
2023/08/29 02:28:08;;;;;;;5.03;3.70;;;13.00;1.00;;;;;;5051795;28;20388;-83
2023/08/29 02:30:37;;;;;;;3.73;3.50;;;12.40;1.00;;;;;;5051620;28;20464;-84
2023/08/29 02:33:02;;;;;;;4.03;3.63;;;12.90;1.00;;;;;;5051779;28;20464;-82
2023/08/29 02:35:28;;;;;;;4.75;4.13;;;15.70;1.00;;;;;;5052915;28;20440;-82
2023/08/29 02:37:53;;;;;;;4.60;4.20;;;12.90;1.00;;;;;;5059324;28;20419;-82
2023/08/29 02:40:19;;;;;;;4.60;3.97;;;12.80;1.00;;;;;;5059387;28;20409;-82
2023/08/29 02:42:45;;;;;;;5.47;4.50;;;13.00;1.00;;;;;;5059596;28;20396;-82
2023/08/29 02:45:11;;;;;;;5.00;4.60;;;12.90;1.00;;;;;;5036946;28;20426;-82
2023/08/29 02:47:36;;;;;;;5.53;5.07;;;12.80;1.00;;;;;;5031523;28;20430;-82
2023/08/29 02:50:03;;;;;;;6.30;4.50;;;12.90;1.00;;;;;;5031803;28;20441;-82
2023/08/29 02:52:29;;;;;;;5.00;4.60;;;13.00;1.00;;;;;;5032041;28;20387;-82
2023/08/29 02:54:54;;;;;;;4.73;4.33;;;12.80;1.00;;;;;;5044520;28;20489;-82
2023/08/29 02:57:20;;;;;;;4.73;4.33;;;12.30;1.00;;;;;;5054047;28;20389;-82
2023/08/29 02:59:45;;;;;;;6.07;5.47;;;12.60;1.00;;;;;;5053273;28;20377;-81
2023/08/29 03:02:11;;;;;;;6.13;4.97;;;11.80;1.00;;;;;;5053999;28;20691;-82
2023/08/29 03:04:36;;;;;;;5.47;5.07;;;12.80;1.00;;;;;;5057406;28;20394;-82
2023/08/29 03:07:04;;;;;;;6.20;5.60;;;13.00;1.00;;;;;;5052235;28;20882;-83
2023/08/29 03:09:29;;;;;;;5.90;5.35;;;13.00;1.00;;;;;;5040049;28;20396;-83
2023/08/29 03:11:55;;;;;;;6.33;5.73;;;12.60;1.00;;;;;;5053508;28;20369;-84
2023/08/29 03:14:21;;;;;;;6.37;5.77;;;12.80;1.00;;;;;;5056148;28;20516;-83
2023/08/29 03:16:46;;;;;;;6.55;5.95;;;12.90;1.00;;;;;;5054399;28;20396;-83
2023/08/29 03:19:12;;;;;;;6.07;5.60;;;12.90;1.00;;;;;;5052219;28;20487;-83
2023/08/29 03:21:38;;;;;;;6.20;5.70;;;12.60;1.00;;;;;;5037799;28;20419;-83
2023/08/29 03:24:05;;;;;;;5.30;4.90;;;12.20;1.00;;;;;;5054295;28;20791;-83
2023/08/29 03:26:31;;;;;;;5.78;5.20;;;12.90;1.00;;;;;;5053698;28;20563;-84
2023/08/29 03:28:56;;;;;;;6.10;5.60;;;13.00;1.00;;;;;;5055134;28;20444;-83
2023/08/29 03:31:22;;;;;;;5.63;5.13;;;13.00;1.00;;;;;;5053737;28;20377;-84
2023/08/29 03:33:47;;;;;;;6.23;5.43;;;12.50;1.00;;;;;;5035257;28;20379;-83
2023/08/29 03:36:14;;;;;;;6.07;5.57;;;13.00;1.00;;;;;;5044060;28;20450;-83
2023/08/29 03:38:41;;;;;;;5.82;5.32;;;12.50;1.00;;;;;;5059217;28;20389;-83
2023/08/29 03:41:07;;;;;;;6.18;5.63;;;12.90;1.00;;;;;;5060194;28;20401;-83
2023/08/29 03:43:34;;;;;;;6.80;6.20;;;12.30;1.00;;;;;;5049543;28;20387;-84
2023/08/29 03:46:05;;;;;;;6.20;5.60;;;12.60;1.00;;;;;;5042881;28;20413;-84
2023/08/29 03:48:31;;;;;;;6.18;5.68;;;12.80;1.00;;;;;;5056552;28;20463;-83
2023/08/29 03:50:58;;;;;;;6.65;6.05;;;12.80;1.00;;;;;;5055270;28;20385;-84
2023/08/29 03:53:24;;;;;;;6.60;6.10;;;12.40;1.00;;;;;;5044555;28;20394;-84
2023/08/29 03:55:49;;;;;;;6.23;5.73;;;12.00;1.00;;;;;;5030966;28;20963;-84
2023/08/29 03:58:15;;;;;;;6.63;6.10;;;12.90;1.00;;;;;;5031858;28;20854;-84
2023/08/29 04:00:44;;;;;;;6.30;5.70;;;12.80;1.00;;;;;;5030906;28;20479;-84
2023/08/29 04:03:10;;;;;;;6.70;6.10;;;12.40;1.00;;;;;;5034269;28;20447;-84
2023/08/29 04:05:36;;;;;;;6.00;5.50;;;12.80;1.00;;;;;;5054927;28;20417;-84
2023/08/29 04:08:04;;;;;;;6.20;5.70;;;12.80;1.00;;;;;;5070343;28;20394;-84
2023/08/29 04:10:29;;;;;;;5.70;5.20;;;13.00;1.00;;;;;;5070096;28;20396;-84
2023/08/29 04:12:55;;;;;;;5.30;4.90;;;12.90;1.00;;;;;;5061101;28;20468;-85
2023/08/29 04:15:20;;;;;;;6.00;5.50;;;12.50;1.00;;;;;;5029475;28;20417;-83
2023/08/29 04:17:46;;;;;;;6.05;5.30;;;13.00;1.00;;;;;;5030753;28;20397;-84
2023/08/29 04:20:12;;;;;;;5.67;5.10;;;12.50;1.00;;;;;;5029049;28;20402;-84
2023/08/29 04:22:38;;;;;;;6.30;5.70;;;13.00;1.00;;;;;;5029493;28;20438;-83
2023/08/29 04:25:07;;;;;;;5.85;5.30;;;12.90;1.00;;;;;;5047975;28;20424;-83
2023/08/29 04:27:34;;;;;;;6.10;5.60;;;12.90;1.00;;;;;;5050613;28;20436;-84
2023/08/29 04:29:59;;;;;;;6.00;5.40;;;13.10;1.00;;;;;;5050495;28;20382;-83
2023/08/29 04:32:25;;;;;;;5.50;5.00;;;12.70;1.00;;;;;;5049434;28;20389;-84
2023/08/29 04:34:50;;;;;;;6.50;5.80;;;12.60;1.00;;;;;;5031559;28;20402;-83
2023/08/29 04:37:16;;;;;;;6.90;6.40;;;12.80;1.00;;;;;;5029178;28;20383;-83
2023/08/29 04:39:42;;;;;;;7.00;6.20;;;12.80;1.00;;;;;;5029597;28;20398;-84
2023/08/29 04:42:08;;;;;;;6.28;5.68;;;12.80;1.00;;;;;;5029152;28;20398;-83
2023/08/29 04:44:34;;;;;;;6.20;5.70;;;12.90;1.00;;;;;;5048685;28;20397;-83
2023/08/29 04:47:00;;;;;;;5.80;5.30;;;12.90;1.00;;;;;;5049768;28;20420;-83
2023/08/29 04:49:25;;;;;;;6.20;5.70;;;12.80;1.00;;;;;;5049169;28;20437;-83
2023/08/29 04:51:51;;;;;;;6.43;5.93;;;12.80;1.00;;;;;;5050205;28;20389;-83
2023/08/29 04:54:16;;;;;;;6.03;5.63;;;12.80;1.00;;;;;;5053974;28;20788;-83
2023/08/29 04:56:42;;;;;;;7.53;6.20;;;12.30;1.00;;;;;;5050080;28;20405;-83
2023/08/29 04:59:07;;;;;;;6.80;6.20;;;12.90;1.00;;;;;;5052453;28;20892;-83
2023/08/29 05:01:33;;;;;;;6.88;6.20;;;12.60;1.00;;;;;;5052528;28;20476;-83
2023/08/29 05:03:59;;;;;;;6.90;6.30;;;12.80;1.00;;;;;;5053713;28;20377;-84
2023/08/29 05:06:25;;;;;;;6.70;6.10;;;13.00;1.00;;;;;;5053586;28;20408;-83
2023/08/29 05:08:50;;;;;;;7.10;6.50;;;12.70;1.00;;;;;;5053003;28;20393;-83
2023/08/29 05:11:16;;;;;;;6.60;6.10;;;12.90;1.00;;;;;;5052332;28;20750;-83
2023/08/29 05:13:42;;;;;;;7.07;6.47;;;13.00;1.00;;;;;;5052350;28;20385;-83
2023/08/29 05:16:07;;;;;;;6.72;6.22;;;12.80;1.00;;;;;;5053942;28;20392;-84
2023/08/29 05:18:33;;;;;;;6.40;5.90;;;12.80;1.00;;;;;;5053636;28;20892;-83
2023/08/29 05:20:58;;;;;;;7.03;6.53;;;12.50;1.00;;;;;;5052703;28;20394;-84
2023/08/29 05:23:24;;;;;;;7.93;7.13;;;13.10;1.00;;;;;;5052510;28;20389;-83
2023/08/29 05:25:49;;;;;;;7.03;6.43;;;13.20;1.00;;;;;;5053343;28;20417;-83
2023/08/29 05:28:15;;;;;;;6.97;6.27;;;13.00;1.00;;;;;;5053303;28;20382;-83
2023/08/29 05:30:42;;;;;;;7.60;6.90;;;13.10;1.00;;;;;;5053333;28;20385;-83
2023/08/29 05:33:08;;;;;;;6.70;6.10;;;13.00;1.00;;;;;;5051698;28;20397;-84
2023/08/29 05:35:33;;;;;;;6.73;6.23;;;14.10;1.00;;;;;;5052882;28;20460;-83
2023/08/29 05:37:59;;;;;;;7.50;6.80;;;13.00;1.00;;;;;;5053568;28;20401;-83
2023/08/29 05:40:25;;;;;;;7.55;6.57;;;12.80;1.00;;;;;;5052903;28;20480;-84
2023/08/29 05:42:51;;;;;;;7.57;6.97;;;13.10;1.00;;;;;;5051941;28;20405;-84
2023/08/29 05:45:16;;;;;;;6.70;6.10;;;13.00;1.00;;;;;;5050071;28;20935;-84
2023/08/29 05:47:42;;;;;;;6.83;6.30;;;13.10;1.00;;;;;;5045511;28;20763;-84
2023/08/29 05:50:08;;;;;;;6.80;6.20;;;13.20;1.00;;;;;;5051343;28;20457;-83
2023/08/29 05:52:33;;;;;;;6.60;6.00;;;13.30;1.00;;;;;;5051747;28;20381;-83
2023/08/29 05:54:59;;;;;;;6.97;6.37;;;12.70;1.00;;;;;;5052662;28;20385;-84
2023/08/29 05:57:25;;;;;;;6.93;6.32;;;13.20;1.00;;;;;;5051547;28;20885;-83
2023/08/29 05:59:51;;;;;;;7.70;7.07;;;12.70;1.00;;;;;;5034325;28;20391;-83
2023/08/29 06:02:16;;;;;;;6.45;5.90;;;13.30;1.00;;;;;;5035257;28;20393;-83
2023/08/29 06:04:42;;;;;;;6.32;5.82;;;13.20;1.00;;;;;;5050002;28;20482;-83
2023/08/29 06:07:08;;;;;;;6.13;5.53;;;13.00;1.00;;;;;;5051448;28;20459;-83
2023/08/29 06:09:33;;;;;;;5.97;5.47;;;12.40;1.00;;;;;;5051235;28;20382;-83
2023/08/29 06:11:59;;;;;;;5.53;5.13;;;13.40;1.00;;;;;;5051200;28;20385;-83
2023/08/29 06:14:25;;;;;;;6.05;5.55;;;12.80;1.00;;;;;;5052663;28;20456;-84
2023/08/29 06:16:51;;;;;;;6.57;6.07;;;13.20;1.00;;;;;;5052829;28;20492;-84
2023/08/29 06:19:17;;;;;;;6.28;5.78;;;13.20;1.00;;;;;;5052924;28;20397;-83
2023/08/29 06:21:42;;;;;;;6.38;5.78;;;12.30;1.00;;;;;;5052033;28;20396;-84
2023/08/29 06:24:08;;;;;;;6.43;5.93;;;13.30;1.00;;;;;;5051176;28;20396;-85
2023/08/29 06:26:34;;;;;;;6.85;6.35;;;13.40;1.00;;;;;;5053282;28;20405;-84
2023/08/29 06:28:59;;;;;;;6.30;5.70;;;13.40;1.00;;;;;;5051646;28;20393;-85
2023/08/29 06:31:25;;;;;;;6.30;5.80;;;13.40;1.00;;;;;;5051115;28;20758;-83
2023/08/29 06:33:50;;;;;;;7.20;6.60;;;13.00;1.00;;;;;;5053986;28;20396;-84
2023/08/29 06:36:16;;;;;;;6.20;5.70;;;13.60;1.00;;;;;;5053542;28;20415;-84
2023/08/29 06:38:42;;;;;;;6.23;5.63;;;13.10;1.00;;;;;;5058747;28;20384;-84
2023/08/29 06:41:08;;;;;;;6.40;5.80;;;13.60;1.00;;;;;;5070333;28;20401;-84
2023/08/29 06:43:34;;;;;;;5.63;5.22;;;13.50;1.00;;;;;;5046796;28;20389;-84
2023/08/29 06:46:00;;;;;;;5.97;5.47;;;13.30;1.00;;;;;;5052217;28;20427;-84
2023/08/29 06:48:25;;;;;;;5.80;5.30;;;12.80;1.00;;;;;;5052810;28;20794;-84
2023/08/29 06:50:51;;;;;;;6.23;5.63;;;13.50;1.00;;;;;;5053231;28;20389;-84
2023/08/29 06:53:16;;;;;;;6.77;6.17;;;13.20;1.00;;;;;;5052173;28;20438;-83
2023/08/29 06:55:42;;;;;;;6.20;5.60;;;13.70;1.00;;;;;;5054688;28;20411;-84
2023/08/29 06:58:07;;;;;;;6.10;5.50;;;13.10;1.00;;;;;;5054361;28;20872;-84
2023/08/29 07:00:34;;;;;;;5.90;5.50;;;13.50;1.00;;;;;;5053536;28;20411;-83
2023/08/29 07:03:00;;;;;;;6.70;6.00;;;13.60;1.00;;;;;;5053061;28;20488;-83
2023/08/29 07:05:26;;;;;;;6.20;5.70;;;13.10;1.00;;;;;;5051557;28;20413;-83
2023/08/29 07:07:52;;;;;;;5.45;5.05;;;13.40;1.00;;;;;;5052042;28;20399;-83
2023/08/29 07:10:17;;;;;;;6.35;5.85;;;13.40;1.00;;;;;;5049753;28;20389;-83
2023/08/29 07:12:43;;;;;;;6.40;5.90;;;13.50;1.00;;;;;;5052461;28;20492;-84
2023/08/29 07:15:09;;;;;;;6.17;5.67;;;13.60;1.00;;;;;;5051933;28;20753;-83
2023/08/29 07:17:35;;;;;;;5.83;5.43;;;13.70;1.00;;;;;;5051543;28;20382;-83
2023/08/29 07:20:02;;;;;;;7.10;6.43;;;13.10;1.00;;;;;;5050813;28;20415;-83
2023/08/29 07:22:30;;;;;;;5.40;4.90;;;13.60;1.00;;;;;;5050103;28;20451;-83
2023/08/29 07:24:55;;;;;;;6.40;5.82;;;15.70;1.00;;;;;;5050052;28;20415;-83
2023/08/29 07:27:21;;;;;;;5.80;5.37;;;13.60;1.00;;;;;;5051305;28;20381;-84
2023/08/29 07:29:46;;;;;;;5.60;5.10;;;13.80;1.00;;;;;;5051173;28;20377;-84
2023/08/29 07:32:12;;;;;;;6.47;5.90;;;13.20;1.00;;;;;;5049852;28;20389;-83
2023/08/29 07:34:39;;;;;;;5.50;5.00;;;13.80;1.00;;;;;;5051775;28;20809;-84
2023/08/29 07:37:05;;;;;;;5.82;5.43;;;14.50;1.00;;;;;;5051218;28;20446;-83
2023/08/29 07:39:30;;;;;;;5.47;5.00;;;14.00;1.00;;;;;;5049843;28;21007;-83
2023/08/29 07:41:56;;;;;;;5.13;4.73;;;13.60;1.00;;;;;;5049989;28;20395;-84
2023/08/29 07:44:21;;;;;;;4.90;4.50;;;13.80;1.00;;;;;;5047541;28;20479;-84
2023/08/29 07:46:47;;;;;;;5.37;4.87;;;13.30;1.00;;;;;;5049719;28;20437;-84
2023/08/29 07:49:20;;;;;;;4.93;4.53;;;13.90;1.00;;;;;;5049567;28;20381;-83
2023/08/29 07:51:46;;;;;;;5.07;4.68;;;13.90;1.00;;;;;;5049376;28;20399;-82
2023/08/29 07:54:11;;;;;;;4.75;4.25;;;14.10;1.00;;;;;;5050913;28;20431;-83
2023/08/29 07:56:37;;;;;;;4.43;3.77;;;13.80;1.00;;;;;;5051261;28;20389;-83
2023/08/29 07:59:03;;;;;;;4.30;4.00;;;14.20;1.00;;;;;;5052803;28;20381;-82
2023/08/29 08:01:29;;;;;;;3.67;3.47;;;13.80;1.00;;;;;;5050860;28;20900;-83
2023/08/29 08:03:54;;;;;;;4.30;4.00;;;14.30;1.00;;;;;;5050016;28;20385;-83
2023/08/29 08:06:20;;;;;;;4.30;3.80;;;14.30;1.00;;;;;;5050512;28;20409;-83
2023/08/29 08:08:45;;;;;;;3.90;3.60;;;13.60;1.00;;;;;;5050485;28;20394;-83
2023/08/29 08:11:11;;;;;;;4.30;3.75;;;14.20;1.00;;;;;;5049681;28;20385;-83
2023/08/29 08:13:37;;;;;;;4.00;3.70;;;14.30;1.00;;;;;;5049803;28;20742;-83
2023/08/29 08:16:02;;;;;;;4.60;4.20;;;14.30;1.00;;;;;;5047125;28;20410;-81
2023/08/29 08:18:28;;;;;;;4.40;4.00;;;14.50;1.00;;;;;;5047050;28;20888;-84
2023/08/29 08:20:53;;;;;;;5.18;3.88;;;14.40;1.00;;;;;;5049402;28;20915;-82
2023/08/29 08:23:19;;;;;;;4.17;3.77;;;14.60;1.00;;;;;;5055582;28;20534;-84
2023/08/29 08:25:44;;;;;;;3.90;3.60;;;14.50;1.00;;;;;;5047851;28;20412;-84
2023/08/29 08:28:10;;;;;;;4.90;4.40;;;14.20;1.00;;;;;;5054189;28;20396;-84
2023/08/29 08:30:39;;;;;;;4.90;4.50;;;14.00;1.00;;;;;;5064869;28;20441;-84
2023/08/29 08:33:05;;;;;;;4.90;4.50;;;14.50;1.00;;;;;;5051030;28;20442;-84
2023/08/29 08:35:31;;;;;;;4.60;4.30;;;14.40;1.00;;;;;;5053213;28;20425;-86
2023/08/29 08:37:57;;;;;;;4.30;3.90;;;13.80;1.00;;;;;;5052353;28;20425;-85
2023/08/29 08:40:22;;;;;;;5.40;5.00;;;14.50;1.00;;;;;;5051736;28;20389;-85
2023/08/29 08:42:48;;;;;;;4.73;4.40;;;14.60;1.00;;;;;;5051817;28;20788;-84
2023/08/29 08:45:14;;;;;;;4.60;4.20;;;14.40;1.00;;;;;;5051951;28;20428;-84
2023/08/29 08:47:40;;;;;;;4.63;4.22;;;14.60;1.00;;;;;;5053950;28;21087;-84
2023/08/29 08:50:10;;;;;;;4.70;4.30;;;14.90;1.00;;;;;;5041544;28;20918;-84
2023/08/29 08:52:37;;;;;;;4.40;4.00;;;15.00;1.00;;;;;;5062779;28;20397;-84
2023/08/29 08:55:02;;;;;;;4.68;4.28;;;14.40;1.00;;;;;;5072405;28;20384;-84
2023/08/29 08:57:28;;;;;;;4.57;4.18;;;15.10;1.00;;;;;;5072244;28;20385;-84
2023/08/29 08:59:54;;;;;;;4.40;4.10;;;15.20;1.00;;;;;;5061476;28;20392;-84
2023/08/29 09:02:20;;;;;;;4.13;3.83;;;15.00;1.00;;;;;;5050509;28;20915;-85
2023/08/29 09:04:46;;;;;;;4.68;4.28;;;15.30;1.00;;;;;;5057426;28;20393;-85
2023/08/29 09:07:11;;;;;;;4.80;4.40;;;15.30;1.00;;;;;;5056488;28;20412;-84
2023/08/29 09:09:37;;;;;;;3.80;3.50;;;15.00;1.00;;;;;;5055429;28;20381;-84
2023/08/29 09:12:03;;;;;;;4.77;4.37;;;14.40;1.00;;;;;;5049707;28;20929;-85
2023/08/29 09:14:30;;;;;;;4.25;3.95;;;15.60;1.00;;;;;;5040475;28;20396;-85
2023/08/29 09:16:58;;;;;;;4.32;3.95;;;14.90;1.00;;;;;;5052896;28;20385;-85
2023/08/29 09:19:25;;;;;;;5.00;4.60;;;15.50;1.00;;;;;;5051573;28;20385;-86
2023/08/29 09:21:51;;;;;;;4.70;4.30;;;15.60;1.00;;;;;;5052758;28;20822;-84
2023/08/29 09:24:33;;;;;;;4.70;4.40;;;15.60;1.00;;;;;;5049773;28;20423;-86
2023/08/29 09:26:58;;;;;;;5.68;5.28;;;14.70;1.00;;;;;;5050931;28;20420;-85
2023/08/29 09:29:24;;;;;;;5.53;5.13;;;15.90;1.00;;;;;;5052193;28;20397;-86
2023/08/29 09:31:50;;;;;;;5.50;5.10;;;15.60;1.00;;;;;;5053737;28;20409;-85
2023/08/29 09:34:29;;;;;;;5.20;4.80;;;15.70;1.00;;;;;;5052530;28;20440;-85
2023/08/29 09:36:59;;;;;;;6.70;6.10;;;15.90;1.00;;;;;;5034598;28;20479;-85
2023/08/29 09:39:26;;;;;;;5.80;5.40;;;15.90;1.00;;;;;;5033520;28;21093;-85
2023/08/29 09:42:04;;;;;;;5.93;5.43;;;15.20;1.00;;;;;;5033814;28;20441;-86
2023/08/29 09:44:36;;;;;;;5.50;5.00;;;15.70;1.00;;;;;;5049930;28;20987;-85
2023/08/29 09:47:01;;;;;;;6.00;5.50;;;14.90;1.00;;;;;;5053135;28;20463;-86
2023/08/29 09:49:41;;;;;;;5.40;4.90;;;15.60;1.00;;;;;;5052364;28;20378;-86
2023/08/29 09:52:07;;;;;;;6.22;5.60;;;15.50;1.00;;;;;;5054963;28;20393;-86
2023/08/29 09:54:34;;;;;;;5.93;5.30;;;16.30;1.00;;;;;;5055977;28;20396;-85
2023/08/29 09:57:05;;;;;;;6.17;5.67;;;15.00;1.00;;;;;;5052982;28;20416;-86
2023/08/29 09:59:34;;;;;;;6.68;6.07;;;15.60;1.00;;;;;;5052558;28;20429;-85
2023/08/29 10:02:01;;;;;;;7.00;6.40;;;15.60;1.00;;;;;;5053642;28;20401;-85
2023/08/29 10:04:29;;;;;;;6.30;5.63;;;17.30;1.00;;;;;;5054655;28;20472;-86
2023/08/29 10:06:58;;;;;;;6.05;5.45;;;16.20;1.00;;;;;;5053259;28;20413;-85
2023/08/29 10:09:25;;;;;;;5.63;5.13;;;15.30;1.00;;;;;;5052635;28;20389;-84
2023/08/29 10:11:52;;;;;;;6.40;5.70;;;15.50;1.00;;;;;;5076680;28;20405;-85
2023/08/29 10:14:18;;;;;;;5.70;5.20;;;16.30;1.00;;;;;;5052167;28;20532;-85
2023/08/29 10:16:46;;;;;;;6.60;5.97;;;16.30;1.00;;;;;;5051351;28;20413;-85
2023/08/29 10:19:14;;;;;;;6.00;5.50;;;16.10;1.00;;;;;;5052100;28;20390;-84
2023/08/29 10:21:42;;;;;;;6.30;5.80;;;16.30;1.00;;;;;;5053159;28;20435;-84
2023/08/29 10:24:10;;;;;;;6.53;5.85;;;18.80;1.00;;;;;;5052835;28;20738;-85
2023/08/29 10:26:37;;;;;;;6.20;5.60;;;16.30;1.00;;;;;;5051222;28;20409;-85
2023/08/29 10:29:05;;;;;;;6.50;5.90;;;16.40;1.00;;;;;;5054398;28;20389;-84
2023/08/29 10:31:32;;;;;;;6.80;6.30;;;16.60;1.00;;;;;;5051076;28;20397;-80
2023/08/29 10:33:58;;;;;;;7.53;6.88;;;16.40;1.00;;;;;;5051158;28;20381;-83
2023/08/29 10:36:25;;;;;;;6.77;6.27;;;16.40;1.00;;;;;;5050639;28;20409;-85
2023/08/29 10:38:50;;;;;;;6.53;6.03;;;16.40;1.00;;;;;;5052084;28;20392;-84
2023/08/29 10:41:16;;;;;;;6.50;6.00;;;15.80;1.00;;;;;;5045693;28;20399;-85
2023/08/29 10:43:42;;;;;;;6.70;6.10;;;16.20;1.00;;;;;;5042601;28;20439;-85
2023/08/29 10:46:11;;;;;;;7.97;7.35;;;15.60;1.00;;;;;;5050345;28;20484;-85
2023/08/29 10:48:41;;;;;;;7.50;6.80;;;15.80;1.00;;;;;;5051748;28;20381;-84
2023/08/29 10:51:14;;;;;;;7.00;6.40;;;16.30;1.00;;;;;;5050490;28;20386;-85
2023/08/29 10:53:48;;;;;;;6.90;6.30;;;15.80;1.00;;;;;;5050614;28;20484;-85
2023/08/29 10:56:15;;;;;;;7.28;6.68;;;16.60;1.00;;;;;;5049981;28;20919;-84
2023/08/29 10:58:42;;;;;;;7.10;6.50;;;15.90;1.00;;;;;;5050303;28;20401;-84
2023/08/29 11:01:30;;;;;;;6.70;6.10;;;16.40;1.00;;;;;;5050293;28;20381;-85
2023/08/29 11:03:57;;;;;;;7.45;6.85;;;16.60;1.00;;;;;;5055351;28;20393;-85
2023/08/29 11:06:25;;;;;;;7.30;6.70;;;16.60;1.00;;;;;;5051349;28;20488;-84
2023/08/29 11:09:10;;;;;;;6.70;6.10;;;16.70;1.00;;;;;;5051573;28;20381;-84
2023/08/29 11:11:36;;;;;;;6.70;6.10;;;16.00;1.00;;;;;;5051731;28;20397;-83
2023/08/29 11:14:03;;;;;;;6.90;6.30;;;16.70;1.00;;;;;;5051440;28;20904;-84
2023/08/29 11:16:34;;;;;;;6.90;6.40;;;16.90;1.00;;;;;;5049948;28;20759;-84
2023/08/29 11:19:16;;;;;;;6.77;6.07;;;16.40;1.00;;;;;;5049797;28;20390;-84
2023/08/29 11:21:45;;;;;;;6.90;6.30;;;17.40;1.00;;;;;;5050301;28;20451;-84
2023/08/29 11:24:10;;;;;;;7.57;6.93;;;16.60;1.00;;;;;;5051271;28;20396;-83
2023/08/29 11:26:40;;;;;;;7.00;6.40;;;16.80;1.00;;;;;;5049884;28;20871;-83
2023/08/29 11:29:07;;;;;;;6.85;6.25;;;16.20;1.00;;;;;;5053392;28;20488;-83
2023/08/29 11:31:40;;;;;;;6.77;6.27;;;16.00;1.00;;;;;;5051462;28;20727;-84
2023/08/29 11:34:20;;;;;;;5.90;5.40;;;16.70;1.00;;;;;;5051520;28;20422;-83
2023/08/29 11:36:50;;;;;;;6.35;5.85;;;18.20;1.00;;;;;;5049951;28;20382;-83
2023/08/29 11:39:19;;;;;;;5.90;5.40;;;17.50;1.00;;;;;;5049236;28;20397;-83
2023/08/29 11:41:45;;;;;;;6.15;5.65;;;17.60;1.00;;;;;;5051948;28;20877;-84
2023/08/29 11:44:10;;;;;;;5.72;5.32;;;17.50;1.00;;;;;;5051827;28;20765;-85
2023/08/29 11:46:36;;;;;;;5.70;5.10;;;19.20;1.00;;;;;;5053450;28;20409;-84
2023/08/29 11:49:13;;;;;;;6.25;5.35;;;17.80;1.00;;;;;;5039603;28;20802;-84
2023/08/29 11:51:39;;;;;;;5.85;5.35;;;17.80;1.00;;;;;;5035890;28;20385;-83
2023/08/29 11:54:05;;;;;;;6.13;5.63;;;17.60;1.00;;;;;;5047216;28;20414;-84
2023/08/29 11:56:30;;;;;;;5.75;5.25;;;17.60;1.00;;;;;;5029554;28;20390;-85
2023/08/29 11:59:00;;;;;;;5.60;5.20;;;19.30;1.00;;;;;;5036877;28;20390;-84
2023/08/29 12:01:26;;;;;;;5.85;5.35;;;17.60;1.00;;;;;;5037089;28;20395;-85
2023/08/29 12:03:53;;;;;;;6.22;5.40;;;17.60;1.00;;;;;;5029675;28;20410;-84
2023/08/29 12:06:19;;;;;;;6.20;5.60;;;18.20;1.00;;;;;;5029119;28;20421;-85
2023/08/29 12:08:46;;;;;;;6.13;5.53;;;17.40;1.00;;;;;;5037220;28;20397;-85
2023/08/29 12:11:15;;;;;;;5.10;4.70;;;17.50;1.00;;;;;;5034827;28;20725;-85
2023/08/29 12:13:56;;;;;;;6.00;5.20;;;18.50;1.00;;;;;;5033690;28;20391;-84
2023/08/29 12:16:22;;;;;;;6.05;5.65;;;17.40;1.00;;;;;;5050764;28;20401;-83
2023/08/29 12:18:47;;;;;;;5.88;5.38;;;17.20;1.00;;;;;;5052887;28;20392;-84
2023/08/29 12:21:18;;;;;;;6.93;5.50;;;17.10;1.00;;;;;;5053968;28;20400;-84
2023/08/29 12:23:45;;;;;;;5.80;5.30;;;17.20;1.00;;;;;;5053298;28;20389;-84
2023/08/29 12:26:11;;;;;;;5.10;4.60;;;17.30;1.00;;;;;;5051291;28;20951;-85
2023/08/29 12:28:37;;;;;;;5.30;4.53;;;17.10;1.00;;;;;;5054359;28;20895;-85
2023/08/29 12:31:03;;;;;;;5.20;4.80;;;17.00;1.00;;;;;;5053041;28;20382;-84
2023/08/29 12:33:29;;;;;;;5.20;4.70;;;17.00;1.00;;;;;;5055192;28;20396;-84
2023/08/29 12:35:55;;;;;;;4.80;4.40;;;16.90;1.00;;;;;;5034373;28;20399;-85
2023/08/29 12:38:23;;;;;;;4.75;4.35;;;17.00;1.00;;;;;;5033171;28;20468;-84
2023/08/29 12:40:48;;;;;;;5.25;4.85;;;17.10;1.00;;;;;;5034274;28;20395;-85
2023/08/29 12:43:16;;;;;;;5.20;4.80;;;17.10;1.00;;;;;;5041110;28;20775;-84
2023/08/29 12:45:43;;;;;;;5.10;4.70;;;17.20;1.00;;;;;;5052651;28;20436;-84
2023/08/29 12:48:08;;;;;;;5.90;5.40;;;17.30;1.00;;;;;;5054440;28;20377;-84
2023/08/29 12:50:34;;;;;;;5.03;4.63;;;17.30;1.00;;;;;;5053277;28;20381;-84
2023/08/29 12:53:00;;;;;;;5.40;4.90;;;17.90;1.00;;;;;;5053471;28;20389;-85
2023/08/29 12:55:26;;;;;;;6.60;4.30;;;17.50;1.00;;;;;;5054223;28;20405;-84